This is the latest recevied weather packets stored in our database for station/object GW1599. If no packets are shown the sender has not sent any weather packets the latest 10 day(s).
| Time | Temp. | Humidity | Pressure | Rain* | Wind** | Luminosity | Snow |
|---|---|---|---|---|---|---|---|
| 1777127450 | 19.44° C | 86% | 1010.4 hPa | 0 mm | - | - | - |
| 1777123843 | 16.11° C | 94% | 1010.4 hPa | 0 mm | - | - | - |
| 1777123476 | 15.56° C | 94% | 1010.8 hPa | 0 mm | - | - | - |
| 1777121660 | 14.44° C | 94% | 1010.4 hPa | 0 mm | - | - | - |
| 1777112681 | 13.33° C | 92% | 1009.4 hPa | 0 mm | - | - | - |
| 1777105103 | 12.78° C | 90% | 1009.1 hPa | 0 mm | - | - | - |
| 1777104380 | 13.33° C | 90% | 1009.1 hPa | 0 mm | - | - | - |
| 1777101152 | 13.33° C | 89% | 1009.1 hPa | 0 mm | - | - | - |
| 1777098291 | 13.33° C | 89% | 1009.1 hPa | 0 mm | - | - | - |
| 1777094690 | 13.89° C | 84% | 1008.8 hPa | 0 mm | - | - | - |
| 1777092876 | 14.44° C | 83% | 1009.1 hPa | 0 mm | - | - | - |
| 1777090711 | 15° C | 81% | 1008.8 hPa | 0 mm | - | - | - |
| 1777080998 | 18.89° C | 67% | 1009.1 hPa | 0 mm | - | - | - |
| 1777079539 | 20.56° C | 63% | 1008.8 hPa | 0 mm | - | - | - |
| 1777074887 | 24.44° C | 50% | 1008.1 hPa | 0 mm | - | - | - |
| 1777074146 | 25° C | 49% | 1008.1 hPa | 0 mm | - | - | - |
| 1777072697 | 25.56° C | 47% | 1008.1 hPa | 0 mm | - | - | - |
| 1777071621 | 25.56° C | 47% | 1008.1 hPa | 0 mm | - | - | - |
| 1777070175 | 26.11° C | 45% | 1008.1 hPa | 0 mm | - | - | - |
| 1777068397 | 26.67° C | 43% | 1008.1 hPa | 0 mm | - | - | - |
| 1777066228 | 27.22° C | 42% | 1008.1 hPa | 0 mm | - | - | - |
| 1777063721 | 28.33° C | 42% | 1008.4 hPa | 0 mm | - | - | - |
| 1777062654 | 28.89° C | 39% | 1008.8 hPa | 0 mm | - | - | - |
| 1777062288 | 29.44° C | 41% | 1008.8 hPa | 0 mm | - | - | - |
| 1777059394 | 28.33° C | 44% | 1009.4 hPa | 0 mm | - | - | - |
* Rain since midnight (hover to see other rain measurements)
** Current wind speed in m/s (hover to see current wind gust speed)